Time;durP1;ratioP1;P1;durP2;ratioP2;P2;SDS_P1;SDS_P2;PMS_P1;PMS_P2;Temp;Humidity;BMP_temperature;BMP_pressure;BME280_temperature;BME280_humidity;BME280_pressure;Samples;Min_cycle;Max_cycle;Signal;HPM_P1;HPM_P2
2023/05/12 00:02:23;;;;;;;2.60;1.30;;;;;;;13.67;48.43;99263.41;4960279;28;20478;-78
2023/05/12 00:04:49;;;;;;;3.13;1.38;;;;;;;13.68;48.38;99259.84;4960881;28;20039;-78
2023/05/12 00:07:15;;;;;;;6.80;1.75;;;;;;;13.67;48.48;99258.16;4993680;28;20409;-78
2023/05/12 00:09:40;;;;;;;5.90;1.58;;;;;;;13.66;48.34;99248.66;4960303;28;20485;-78
2023/05/12 00:12:07;;;;;;;3.10;1.33;;;;;;;13.65;48.64;99254.84;4960142;28;20046;-78
2023/05/12 00:14:34;;;;;;;3.25;1.38;;;;;;;13.62;48.57;99254.25;4960051;28;20038;-78
2023/05/12 00:17:00;;;;;;;4.22;1.60;;;;;;;13.62;48.57;99252.47;4993317;28;20043;-78
2023/05/12 00:19:25;;;;;;;3.60;1.30;;;;;;;13.62;48.85;99259.50;4959732;28;20033;-78
2023/05/12 00:21:51;;;;;;;2.90;1.60;;;;;;;13.57;48.99;99260.69;4975755;28;20125;-78
2023/05/12 00:24:16;;;;;;;1.90;1.33;;;;;;;13.60;48.91;99259.63;4976412;28;20394;-78
2023/05/12 00:26:42;;;;;;;5.95;1.83;;;;;;;13.58;48.87;99261.53;4959697;28;20049;-78
2023/05/12 00:29:07;;;;;;;3.20;1.50;;;;;;;13.53;49.00;99256.63;4993535;28;20441;-78
2023/05/12 00:31:33;;;;;;;9.60;1.70;;;;;;;13.53;48.99;99256.63;4959657;28;20054;-78
2023/05/12 00:33:58;;;;;;;3.95;1.70;;;;;;;13.52;48.97;99260.25;4943803;28;20058;-78
2023/05/12 00:36:25;;;;;;;3.20;1.80;;;;;;;13.51;48.99;99257.75;4975726;28;20054;-78
2023/05/12 00:38:50;;;;;;;3.45;1.30;;;;;;;13.51;49.12;99258.56;4959582;28;20045;-78
2023/05/12 00:41:16;;;;;;;2.80;1.58;;;;;;;13.50;49.31;99263.94;4959592;28;20038;-78
2023/05/12 00:43:41;;;;;;;2.92;1.50;;;;;;;13.49;49.19;99264.88;4958755;28;20034;-77
2023/05/12 00:46:07;;;;;;;4.82;1.50;;;;;;;13.45;49.39;99252.97;4975704;28;20046;-78
2023/05/12 00:48:33;;;;;;;7.47;1.73;;;;;;;13.45;49.54;99261.69;4959203;28;20081;-78
2023/05/12 00:50:58;;;;;;;1.85;1.35;;;;;;;13.45;49.29;99260.84;4959764;28;20100;-77
2023/05/12 00:53:24;;;;;;;3.33;1.40;;;;;;;13.40;49.48;99255.97;4959644;28;20044;-78
2023/05/12 00:55:49;;;;;;;3.50;1.73;;;;;;;13.42;49.28;99258.47;4959664;28;20038;-80
2023/05/12 00:58:15;;;;;;;1.98;1.30;;;;;;;13.36;49.63;99247.53;4959457;28;20045;-79
2023/05/12 01:00:40;;;;;;;2.47;1.45;;;;;;;13.38;49.39;99255.28;4943401;28;20054;-80
2023/05/12 01:03:06;;;;;;;3.58;1.60;;;;;;;13.37;49.64;99248.34;4959197;28;20097;-79
2023/05/12 01:05:49;;;;;;;2.83;1.65;;;;;;;13.32;49.68;99248.69;4976070;28;20073;-79
2023/05/12 01:08:16;;;;;;;4.72;1.77;;;;;;;13.30;49.66;99247.13;4975766;28;20126;-77
2023/05/12 01:10:45;;;;;;;2.30;1.60;;;;;;;13.33;49.85;99254.78;4943277;28;20040;-79
2023/05/12 01:13:10;;;;;;;4.07;1.40;;;;;;;13.31;49.62;99251.41;4959459;28;20054;-79
2023/05/12 01:15:36;;;;;;;3.65;1.38;;;;;;;13.31;49.89;99251.41;4959168;28;20057;-80
2023/05/12 01:18:01;;;;;;;3.40;1.60;;;;;;;13.28;49.48;99249.03;4959365;28;20046;-79
2023/05/12 01:20:27;;;;;;;2.15;1.33;;;;;;;13.27;49.92;99250.03;4959295;28;20405;-79
2023/05/12 01:22:53;;;;;;;2.47;1.50;;;;;;;13.23;49.56;99243.34;4959395;28;20409;-79
2023/05/12 01:25:19;;;;;;;2.38;1.38;;;;;;;13.24;50.01;99251.09;4959645;28;20038;-79
2023/05/12 01:27:44;;;;;;;3.17;1.63;;;;;;;13.23;49.69;99251.19;4975473;28;20045;-78
2023/05/12 01:30:10;;;;;;;4.32;1.60;;;;;;;13.20;49.87;99250.50;4942862;28;20485;-78
2023/05/12 01:32:37;;;;;;;2.47;1.40;;;;;;;13.21;49.70;99253.94;4943082;28;20043;-79
2023/05/12 01:35:03;;;;;;;2.03;1.50;;;;;;;13.17;49.60;99244.63;4958724;28;20038;-78
2023/05/12 01:37:28;;;;;;;4.47;1.70;;;;;;;13.16;49.88;99248.25;4959152;28;20413;-79
2023/05/12 01:39:54;;;;;;;4.82;1.70;;;;;;;13.13;49.64;99238.81;4992663;28;20057;-79
2023/05/12 01:42:19;;;;;;;2.80;1.55;;;;;;;13.09;49.72;99240.00;4992519;28;20405;-79
2023/05/12 01:44:45;;;;;;;6.28;1.70;;;;;;;13.08;50.26;99246.22;4959349;28;20502;-79
2023/05/12 01:47:11;;;;;;;4.60;1.60;;;;;;;13.10;50.10;99244.28;4974763;28;20113;-78
2023/05/12 01:49:36;;;;;;;5.80;1.90;;;;;;;13.08;49.88;99246.22;4959373;28;20041;-78
2023/05/12 01:52:02;;;;;;;3.78;1.90;;;;;;;13.07;49.89;99247.16;4959211;28;20038;-78
2023/05/12 01:54:28;;;;;;;4.43;1.60;;;;;;;13.03;50.17;99243.97;4958648;28;20042;-78
2023/05/12 01:56:53;;;;;;;3.85;1.80;;;;;;;13.07;50.31;99256.81;4975075;28;20034;-79
2023/05/12 01:59:19;;;;;;;2.97;1.58;;;;;;;13.00;50.21;99243.38;4975136;28;20038;-79
2023/05/12 02:01:44;;;;;;;2.92;1.60;;;;;;;13.02;50.11;99250.13;4942848;28;20090;-78
2023/05/12 02:04:10;;;;;;;3.90;1.58;;;;;;;13.01;50.20;99251.13;4975039;28;20037;-77
2023/05/12 02:06:35;;;;;;;3.17;1.40;;;;;;;13.01;50.24;99245.00;4942943;28;20042;-79
2023/05/12 02:09:01;;;;;;;2.88;1.50;;;;;;;13.01;50.03;99242.41;4992137;28;20047;-77
2023/05/12 02:11:27;;;;;;;4.18;1.60;;;;;;;12.96;50.16;99241.94;4975506;28;20042;-78
2023/05/12 02:13:52;;;;;;;3.80;1.52;;;;;;;12.97;50.07;99246.22;4978703;28;20490;-79
2023/05/12 02:16:17;;;;;;;2.42;1.42;;;;;;;12.95;50.10;99248.13;4945977;28;20042;-79
2023/05/12 02:18:43;;;;;;;4.10;1.55;;;;;;;12.98;49.95;99251.34;4945838;28;20110;-78
2023/05/12 02:21:08;;;;;;;4.13;1.60;;;;;;;12.92;49.96;99245.72;4977935;28;20505;-79
2023/05/12 02:23:34;;;;;;;3.22;1.25;;;;;;;12.94;50.11;99246.47;4977991;28;20117;-79
2023/05/12 02:25:59;;;;;;;2.70;1.58;;;;;;;12.89;50.15;99243.34;4978183;28;20398;-79
2023/05/12 02:28:25;;;;;;;3.55;1.70;;;;;;;12.89;50.14;99246.81;4977907;28;20054;-79
2023/05/12 02:30:51;;;;;;;4.10;1.60;;;;;;;12.84;50.18;99241.13;4945943;28;20041;-80
2023/05/12 02:33:18;;;;;;;4.57;1.65;;;;;;;12.84;50.34;99239.31;4977929;28;20030;-79
2023/05/12 02:35:43;;;;;;;7.43;1.83;;;;;;;12.83;50.03;99239.44;4962162;28;20124;-80
2023/05/12 02:38:09;;;;;;;2.45;1.65;;;;;;;12.87;49.98;99247.88;4962470;28;20125;-80
2023/05/12 02:40:35;;;;;;;3.47;1.70;;;;;;;12.85;50.17;99240.13;4961211;28;20038;-79
2023/05/12 02:43:00;;;;;;;3.63;1.63;;;;;;;12.85;49.97;99240.97;4961054;28;20042;-79
2023/05/12 02:45:26;;;;;;;4.60;1.65;;;;;;;12.78;50.32;99228.50;4961847;28;20042;-79
2023/05/12 02:47:51;;;;;;;2.65;1.70;;;;;;;12.81;50.27;99236.09;4960705;28;20093;-79
2023/05/12 02:50:17;;;;;;;3.53;1.67;;;;;;;12.81;49.91;99236.94;4995383;28;20034;-79
2023/05/12 02:52:42;;;;;;;3.45;1.60;;;;;;;12.84;49.77;99243.72;4961765;28;20520;-79
2023/05/12 02:55:08;;;;;;;3.42;1.73;;;;;;;12.85;49.77;99243.59;4995054;28;20046;-79
2023/05/12 02:57:33;;;;;;;3.72;1.65;;;;;;;12.83;49.78;99249.91;4995016;28;20061;-79
2023/05/12 03:00:05;;;;;;;3.20;1.50;;;;;;;12.84;50.09;99246.34;4961590;28;20406;-79
2023/05/12 03:02:34;;;;;;;2.38;1.63;;;;;;;12.86;49.83;99254.91;4963132;28;20433;-79
2023/05/12 03:05:00;;;;;;;3.50;1.60;;;;;;;12.87;50.17;99251.31;4977238;28;20045;-82
2023/05/12 03:07:26;;;;;;;3.38;1.50;;;;;;;12.89;49.54;99252.06;4961456;28;20482;-81
2023/05/12 03:09:51;;;;;;;2.95;1.35;;;;;;;12.88;49.80;99244.31;4961190;28;20045;-81
2023/05/12 03:12:17;;;;;;;2.95;1.60;;;;;;;12.91;49.71;99242.28;4960899;28;20042;-79
2023/05/12 03:14:42;;;;;;;2.90;1.40;;;;;;;12.93;49.61;99252.66;4977633;28;20405;-76
2023/05/12 03:17:08;;;;;;;2.03;1.38;;;;;;;12.92;49.71;99245.72;4976189;28;20074;-78
2023/05/12 03:19:33;;;;;;;5.15;1.90;;;;;;;12.95;49.89;99253.34;4944894;28;20452;-77
2023/05/12 03:21:59;;;;;;;6.55;2.03;;;;;;;12.93;49.58;99242.16;4960946;28;20041;-77
2023/05/12 03:24:25;;;;;;;3.78;1.60;;;;;;;12.98;49.56;99256.59;4959993;28;20074;-80
2023/05/12 03:26:51;;;;;;;3.88;1.52;;;;;;;13.00;49.32;99262.53;4961053;28;20060;-77
2023/05/12 03:29:16;;;;;;;3.05;1.70;;;;;;;13.06;49.51;99266.44;4960912;28;20061;-77
2023/05/12 03:31:42;;;;;;;3.33;1.75;;;;;;;13.10;53.55;99264.44;4976863;28;20066;-78
2023/05/12 03:34:07;;;;;;;5.63;1.65;;;;;;;13.20;53.08;99274.09;4961683;28;20042;-81
2023/05/12 03:36:33;;;;;;;3.22;1.38;;;;;;;13.28;53.03;99278.69;4945126;28;20509;-76
2023/05/12 03:38:58;;;;;;;9.60;2.00;;;;;;;13.54;64.02;99283.72;4994535;28;20449;-83
2023/05/12 03:41:23;;;;;;;4.05;1.50;;;;;;;13.79;61.42;99279.09;4994817;28;20034;-80
2023/05/12 03:43:49;;;;;;;5.68;1.70;;;;;;;13.87;59.20;99285.41;4975936;28;20513;-79
2023/05/12 03:46:15;;;;;;;6.32;1.60;;;;;;;13.87;58.27;99282.78;4976747;28;20053;-80
2023/05/12 03:48:40;;;;;;;2.90;1.63;;;;;;;13.89;56.54;99280.03;4960697;28;20050;-77
2023/05/12 03:51:05;;;;;;;3.05;1.60;;;;;;;13.86;56.03;99286.38;4976475;28;20520;-76
2023/05/12 03:53:31;;;;;;;25.13;3.55;;;;;;;14.11;62.62;99289.63;4960856;28;20034;-77
2023/05/12 03:55:57;;;;;;;8.00;1.83;;;;;;;14.18;58.66;99293.38;4956591;28;20031;-81
2023/05/12 03:58:23;;;;;;;8.07;1.83;;;;;;;14.19;57.77;99300.31;4940366;28;20130;-84
2023/05/12 04:00:49;;;;;;;5.55;1.67;;;;;;;14.38;62.07;99309.31;4951289;28;20061;-81
2023/05/12 04:03:16;;;;;;;9.20;2.00;;;;;;;14.46;59.75;99305.06;4941635;28;20073;-83
2023/05/12 04:05:41;;;;;;;9.63;1.75;;;;;;;14.48;58.38;99303.16;4941245;28;20035;-85
2023/05/12 04:08:08;;;;;;;4.18;1.50;;;;;;;14.47;57.09;99303.28;4965264;28;20047;-81
2023/05/12 04:10:40;;;;;;;5.20;1.80;;;;;;;14.51;56.01;99309.13;4966106;28;20050;-86
2023/05/12 04:13:06;;;;;;;6.45;2.20;;;;;;;14.49;55.91;99304.00;4954850;28;20487;-85
2023/05/12 04:15:34;;;;;;;5.20;1.70;;;;;;;14.54;55.27;99314.94;4955966;28;20179;-85
2023/05/12 04:17:59;;;;;;;3.30;1.70;;;;;;;14.56;55.16;99317.44;4955365;28;20049;-85
2023/05/12 04:20:25;;;;;;;11.65;1.70;;;;;;;14.55;54.76;99313.13;4924169;28;20035;-85
2023/05/12 04:22:50;;;;;;;4.18;1.80;;;;;;;14.71;58.90;99318.81;4940148;28;20109;-81
2023/05/12 04:25:16;;;;;;;4.60;1.83;;;;;;;14.74;55.92;99310.69;4973494;28;20074;-81
2023/05/12 04:27:41;;;;;;;4.05;1.55;;;;;;;14.80;54.79;99318.03;4956767;28;20043;-79
2023/05/12 04:30:07;;;;;;;2.78;1.38;;;;;;;14.82;53.89;99312.66;4956604;28;20035;-80
2023/05/12 04:32:33;;;;;;;6.63;2.10;;;;;;;14.83;53.38;99317.78;4956419;28;20055;-79
2023/05/12 04:34:58;;;;;;;5.20;1.83;;;;;;;14.89;52.74;99318.22;4956555;28;20039;-78
2023/05/12 04:37:24;;;;;;;5.68;2.22;;;;;;;14.87;52.02;99315.72;4974071;28;20422;-80
2023/05/12 04:39:49;;;;;;;2.90;1.40;;;;;;;14.91;51.74;99314.50;4956392;28;20138;-79
2023/05/12 04:42:15;;;;;;;3.28;1.70;;;;;;;14.92;50.90;99308.28;4956569;28;20494;-81
2023/05/12 04:44:40;;;;;;;5.07;1.70;;;;;;;15.00;50.45;99321.59;4940421;28;20046;-79
2023/05/12 04:47:06;;;;;;;2.15;1.45;;;;;;;15.03;50.12;99312.63;4956102;28;20035;-80
2023/05/12 04:49:31;;;;;;;8.23;2.03;;;;;;;15.10;49.67;99316.41;4940517;28;20074;-82
2023/05/12 04:51:57;;;;;;;4.72;1.55;;;;;;;15.20;48.96;99321.69;4973821;28;20035;-82
2023/05/12 04:54:22;;;;;;;2.75;1.50;;;;;;;15.27;48.52;99325.44;4956141;28;20101;-91
2023/05/12 04:56:48;;;;;;;4.30;1.80;;;;;;;15.31;48.11;99315.50;4956433;28;20412;-78
2023/05/12 04:59:16;;;;;;;4.97;1.80;;;;;;;15.42;47.71;99323.28;4973008;28;20056;-78
2023/05/12 05:01:42;;;;;;;5.22;2.10;;;;;;;15.46;47.49;99318.59;4973134;28;20522;-77
2023/05/12 05:04:09;;;;;;;2.38;1.30;;;;;;;15.58;46.72;99324.59;4956381;28;20039;-77
2023/05/12 05:06:35;;;;;;;3.97;1.75;;;;;;;15.66;46.45;99320.31;4970077;28;20421;-77
2023/05/12 05:09:00;;;;;;;4.82;1.52;;;;;;;15.73;46.25;99321.44;4993476;28;20034;-78
2023/05/12 05:11:26;;;;;;;3.95;1.42;;;;;;;15.84;45.58;99327.56;4959529;28;20485;-78
2023/05/12 05:13:51;;;;;;;3.13;1.50;;;;;;;15.93;45.28;99329.38;4943353;28;20046;-78
2023/05/12 05:16:17;;;;;;;6.35;1.58;;;;;;;16.04;44.82;99325.78;4943661;28;20042;-77
2023/05/12 05:18:45;;;;;;;3.70;1.63;;;;;;;16.12;44.41;99317.22;4959521;28;20034;-78
2023/05/12 05:21:13;;;;;;;4.00;1.45;;;;;;;16.18;44.26;99320.13;4960324;28;20114;-78
2023/05/12 05:23:39;;;;;;;;;;;;;;;16.29;43.78;99319.16;4944098;28;20120;-79
2023/05/12 05:26:04;;;;;;;8.13;2.08;;;;;;;16.32;43.66;99318.00;4959922;28;20380;-80
2023/05/12 05:28:30;;;;;;;5.05;1.35;;;;;;;16.37;43.37;99321.91;4959909;28;20509;-79
2023/05/12 05:30:55;;;;;;;5.57;1.70;;;;;;;16.46;43.05;99317.59;4959491;28;20038;-78
2023/05/12 05:33:21;;;;;;;4.68;1.90;;;;;;;16.56;42.88;99314.97;4943293;28;20034;-81
2023/05/12 05:35:47;;;;;;;2.65;1.60;;;;;;;16.63;42.54;99308.13;4943923;28;20561;-82
2023/05/12 05:38:12;;;;;;;5.75;1.58;;;;;;;16.76;42.08;99308.69;4943419;28;20046;-78
2023/05/12 05:40:38;;;;;;;4.95;1.70;;;;;;;16.87;41.71;99307.69;4943369;28;20034;-79
2023/05/12 05:43:03;;;;;;;8.27;1.60;;;;;;;17.01;41.66;99316.94;4959624;28;20073;-78
2023/05/12 05:45:29;;;;;;;5.60;1.55;;;;;;;17.13;41.24;99312.34;4943498;28;20332;-79
2023/05/12 05:47:55;;;;;;;4.78;1.45;;;;;;;17.30;40.85;99315.97;4963300;28;20564;-80
2023/05/12 05:50:20;;;;;;;4.32;1.45;;;;;;;17.49;40.53;99305.34;4963159;28;20030;-78
2023/05/12 05:52:46;;;;;;;5.60;1.60;;;;;;;17.75;39.77;99314.38;4947371;28;20038;-78
2023/05/12 05:55:12;;;;;;;5.43;1.60;;;;;;;17.95;39.21;99302.72;4963351;28;20097;-78
2023/05/12 05:57:37;;;;;;;4.22;1.90;;;;;;;18.19;38.73;99306.56;4963117;28;20090;-80
2023/05/12 06:00:04;;;;;;;4.80;1.73;;;;;;;18.44;38.17;99318.16;4946353;28;20501;-79
2023/05/12 06:02:32;;;;;;;5.75;1.48;;;;;;;18.71;37.34;99321.66;4964085;28;20042;-80
2023/05/12 06:04:58;;;;;;;3.28;1.38;;;;;;;18.91;36.87;99304.63;4948300;28;20050;-78
2023/05/12 06:07:24;;;;;;;4.32;2.10;;;;;;;19.16;36.36;99307.38;4963994;28;20045;-79
2023/05/12 06:09:52;;;;;;;6.22;2.15;;;;;;;19.36;35.61;99301.88;4948198;28;20038;-78
2023/05/12 06:12:17;;;;;;;9.10;2.17;;;;;;;19.64;34.85;99313.88;4979607;28;20037;-79
2023/05/12 06:14:43;;;;;;;6.55;1.95;;;;;;;19.77;34.34;99312.59;4963258;28;20046;-77
2023/05/12 06:17:08;;;;;;;9.32;2.00;;;;;;;19.85;33.86;99302.84;4963300;28;20486;-78
2023/05/12 06:19:34;;;;;;;6.00;1.83;;;;;;;19.91;33.78;99305.81;4947141;28;20039;-80
2023/05/12 06:21:59;;;;;;;11.98;2.03;;;;;;;20.00;33.54;99318.09;4947345;28;20069;-80
2023/05/12 06:24:25;;;;;;;7.55;1.77;;;;;;;20.02;33.30;99310.81;4946849;28;20505;-79
2023/05/12 06:26:50;;;;;;;7.85;1.67;;;;;;;20.04;33.25;99316.78;4962758;28;20030;-79
2023/05/12 06:29:16;;;;;;;4.03;1.73;;;;;;;20.10;32.93;99320.59;4963825;28;20132;-82
2023/05/12 06:31:42;;;;;;;5.82;1.40;;;;;;;20.13;32.82;99314.97;4947212;28;20146;-77
2023/05/12 06:34:07;;;;;;;8.50;2.15;;;;;;;20.20;32.69;99316.78;4964093;28;20042;-79
2023/05/12 06:36:33;;;;;;;8.40;1.80;;;;;;;20.22;32.44;99314.78;4963003;28;20575;-79
2023/05/12 06:39:00;;;;;;;5.35;2.00;;;;;;;20.31;32.46;99320.94;4948535;28;20046;-80
2023/05/12 06:41:26;;;;;;;5.73;2.20;;;;;;;20.27;32.28;99311.66;4948128;28;20038;-78
2023/05/12 06:43:52;;;;;;;8.18;2.00;;;;;;;20.28;32.34;99323.91;4979726;28;20108;-80
2023/05/12 06:46:17;;;;;;;5.75;1.77;;;;;;;20.27;32.16;99313.47;4947210;28;20064;-82
2023/05/12 06:48:43;;;;;;;6.72;1.83;;;;;;;20.35;32.25;99321.41;4963217;28;20046;-78
2023/05/12 06:51:09;;;;;;;12.10;2.05;;;;;;;20.38;31.86;99314.00;4963525;28;20034;-81
2023/05/12 06:53:37;;;;;;;6.55;2.10;;;;;;;20.30;32.05;99310.50;4947778;28;20045;-81
2023/05/12 06:56:04;;;;;;;7.15;2.00;;;;;;;20.30;31.84;99321.91;4996113;28;20493;-78
2023/05/12 06:58:29;;;;;;;6.28;2.00;;;;;;;20.23;31.85;99313.00;4962920;28;20520;-78
2023/05/12 07:00:55;;;;;;;4.75;1.70;;;;;;;20.17;32.02;99322.41;4962164;28;20130;-81
2023/05/12 07:03:20;;;;;;;6.18;1.63;;;;;;;20.14;32.04;99314.78;4961979;28;20505;-80
2023/05/12 07:05:46;;;;;;;5.85;1.55;;;;;;;20.09;32.03;99322.41;4945705;28;20057;-81
2023/05/12 07:08:11;;;;;;;5.75;1.58;;;;;;;20.02;32.20;99318.75;4963291;28;20489;-77
2023/05/12 07:10:37;;;;;;;2.17;1.40;;;;;;;19.97;32.13;99316.63;4947027;28;20031;-79
2023/05/12 07:13:03;;;;;;;4.75;1.70;;;;;;;19.96;32.11;99316.78;4961768;28;20040;-79
2023/05/12 07:15:28;;;;;;;2.00;1.30;;;;;;;19.81;32.05;99306.78;4946365;28;20080;-79
2023/05/12 07:17:54;;;;;;;4.68;1.50;;;;;;;19.79;32.28;99306.13;4946757;28;20080;-79
2023/05/12 07:20:21;;;;;;;8.40;1.65;;;;;;;19.81;32.42;99319.22;4995469;28;20038;-79
2023/05/12 07:22:46;;;;;;;9.88;1.73;;;;;;;19.80;32.44;99313.09;4978196;28;20046;-78
2023/05/12 07:25:12;;;;;;;7.45;1.60;;;;;;;19.78;32.50;99316.91;4962128;28;20533;-78
2023/05/12 07:27:37;;;;;;;7.13;1.80;;;;;;;19.79;32.35;99308.78;4945906;28;20043;-77
2023/05/12 07:30:05;;;;;;;1.95;1.30;;;;;;;19.83;32.32;99320.72;4961933;28;20066;-79
2023/05/12 07:32:31;;;;;;;7.60;1.70;;;;;;;20.00;32.38;99324.25;4978036;28;20115;-80
2023/05/12 07:34:56;;;;;;;4.47;1.35;;;;;;;20.19;32.09;99316.94;4945777;28;20077;-79
2023/05/12 07:37:22;;;;;;;3.85;1.55;;;;;;;20.60;31.62;99316.94;4963731;28;20071;-81
2023/05/12 07:39:48;;;;;;;2.70;1.27;;;;;;;21.15;31.11;99310.03;4946528;28;20066;-78
2023/05/12 07:42:14;;;;;;;3.72;1.58;;;;;;;21.61;30.10;99315.50;4946957;28;20065;-79
2023/05/12 07:44:40;;;;;;;3.22;1.55;;;;;;;21.90;29.59;99314.03;4963436;28;20504;-78
2023/05/12 07:47:06;;;;;;;4.53;1.50;;;;;;;22.10;29.58;99316.22;4945866;28;20038;-79
2023/05/12 07:49:31;;;;;;;5.32;1.70;;;;;;;22.32;28.95;99306.59;4962034;28;20041;-78
2023/05/12 07:51:57;;;;;;;8.20;1.88;;;;;;;22.28;28.52;99295.47;4961972;28;20034;-78
2023/05/12 07:54:22;;;;;;;3.90;1.60;;;;;;;22.45;28.11;99306.81;4961275;28;20039;-79
2023/05/12 07:56:48;;;;;;;7.32;1.55;;;;;;;22.62;27.95;99310.16;4960790;28;20100;-78
2023/05/12 07:59:13;;;;;;;7.15;1.65;;;;;;;23.10;27.78;99304.50;4977624;28;20038;-81
2023/05/12 08:01:39;;;;;;;5.40;1.60;;;;;;;23.64;26.80;99319.31;4960867;28;20047;-79
2023/05/12 08:04:05;;;;;;;5.80;1.52;;;;;;;24.06;26.22;99314.25;4961326;28;20046;-78
2023/05/12 08:06:31;;;;;;;6.35;1.30;;;;;;;24.63;25.37;99332.00;4961887;28;20035;-82
2023/05/12 08:08:57;;;;;;;5.68;1.30;;;;;;;25.01;24.72;99320.16;4944588;28;20041;-78
2023/05/12 08:11:26;;;;;;;5.47;1.83;;;;;;;25.16;24.60;99312.84;4961614;28;20409;-78
2023/05/12 08:13:52;;;;;;;9.15;1.48;;;;;;;25.46;24.00;99312.59;4945473;28;20493;-80
2023/05/12 08:16:17;;;;;;;5.22;1.40;;;;;;;25.97;23.32;99311.31;4945501;28;20092;-82
2023/05/12 08:18:43;;;;;;;9.38;1.15;;;;;;;26.53;22.65;99313.63;4945518;28;20030;-79
2023/05/12 08:21:09;;;;;;;2.10;1.10;;;;;;;26.98;22.27;99312.97;4976854;28;20046;-78
2023/05/12 08:23:36;;;;;;;4.47;1.20;;;;;;;27.26;22.02;99311.81;4944852;28;20065;-79
2023/05/12 08:26:03;;;;;;;6.72;1.33;;;;;;;27.78;21.59;99306.44;4945445;28;20046;-79
2023/05/12 08:28:29;;;;;;;3.95;1.50;;;;;;;28.20;20.78;99312.19;4944817;28;20038;-80
2023/05/12 08:30:54;;;;;;;5.35;1.00;;;;;;;28.57;20.27;99306.91;4944822;28;20047;-81
2023/05/12 08:33:20;;;;;;;6.57;1.23;;;;;;;28.85;19.71;99317.22;4961013;28;20120;-82
2023/05/12 08:35:45;;;;;;;3.35;1.10;;;;;;;29.05;19.92;99308.94;4960283;28;20042;-80
2023/05/12 08:38:11;;;;;;;7.85;1.30;;;;;;;29.34;19.64;99311.13;4976957;28;20104;-79
2023/05/12 08:40:57;;;;;;;6.35;1.40;;;;;;;29.48;19.85;99314.50;4960305;28;20045;-80
2023/05/12 08:43:28;;;;;;;6.15;1.33;;;;;;;29.37;19.56;99306.13;4975876;28;20034;-79
2023/05/12 08:45:57;;;;;;;3.88;0.93;;;;;;;29.31;19.41;99304.34;4962163;28;20038;-79
2023/05/12 08:48:26;;;;;;;3.85;1.00;;;;;;;29.03;19.88;99291.41;4961996;28;20121;-83
2023/05/12 08:50:52;;;;;;;8.50;1.48;;;;;;;28.73;19.93;99302.06;4945103;28;20065;-79
2023/05/12 08:53:18;;;;;;;4.45;1.15;;;;;;;28.57;19.97;99303.41;4960616;28;20042;-80
2023/05/12 08:55:43;;;;;;;4.53;1.38;;;;;;;28.05;20.71;99295.59;4959747;28;20038;-81
2023/05/12 08:58:09;;;;;;;3.92;1.30;;;;;;;27.88;20.32;99314.03;4944569;28;20080;-79
2023/05/12 09:00:35;;;;;;;3.38;1.30;;;;;;;27.62;20.61;99313.97;4976663;28;20078;-82
2023/05/12 09:03:01;;;;;;;5.05;1.30;;;;;;;27.29;20.29;99307.91;4943925;28;20125;-78
2023/05/12 09:05:27;;;;;;;6.95;1.30;;;;;;;27.21;20.70;99314.31;4960208;28;20120;-78
2023/05/12 09:07:54;;;;;;;4.95;1.10;;;;;;;26.98;20.71;99314.78;4976111;28;20128;-80
2023/05/12 09:10:20;;;;;;;7.47;1.48;;;;;;;26.67;21.04;99318.97;4944055;28;20040;-79
2023/05/12 09:12:46;;;;;;;6.45;1.30;;;;;;;26.33;21.56;99315.47;4959944;28;20096;-80
2023/05/12 09:15:15;;;;;;;3.90;1.10;;;;;;;25.97;21.94;99308.66;4944384;28;20128;-79
2023/05/12 09:17:40;;;;;;;7.22;1.38;;;;;;;25.92;22.44;99311.06;4960069;28;20049;-78
2023/05/12 09:20:06;;;;;;;3.97;1.00;;;;;;;25.67;22.42;99308.16;4959949;28;20050;-78
2023/05/12 09:22:36;;;;;;;4.93;1.45;;;;;;;25.68;22.52;99307.09;4946995;28;20501;-79
2023/05/12 09:25:20;;;;;;;7.10;1.38;;;;;;;25.69;22.51;99298.88;4965300;28;20034;-79
2023/05/12 09:27:46;;;;;;;6.00;1.42;;;;;;;25.89;22.46;99308.81;4949300;28;20485;-79
2023/05/12 09:30:12;;;;;;;5.00;1.40;;;;;;;25.91;22.74;99298.72;4964131;28;20041;-79
2023/05/12 09:32:38;;;;;;;4.80;1.20;;;;;;;25.81;22.75;99312.50;4964022;28;20125;-82
2023/05/12 09:35:11;;;;;;;3.60;1.27;;;;;;;25.67;22.34;99306.28;4963904;28;20076;-78
2023/05/12 09:37:37;;;;;;;3.30;1.42;;;;;;;25.83;22.29;99307.75;4965344;28;20100;-79
2023/05/12 09:40:06;;;;;;;4.22;1.40;;;;;;;25.87;22.52;99309.00;4964513;28;20034;-79
2023/05/12 09:42:33;;;;;;;3.35;1.15;;;;;;;26.07;22.03;99300.22;4964311;28;20130;-82
2023/05/12 09:45:10;;;;;;;4.85;1.10;;;;;;;25.92;22.20;99298.53;4965486;28;20437;-79
2023/05/12 09:47:36;;;;;;;6.75;1.40;;;;;;;25.81;22.59;99304.47;4967499;28;20053;-79
2023/05/12 09:50:03;;;;;;;5.78;1.00;;;;;;;25.67;22.63;99300.13;4964646;28;20096;-80
2023/05/12 09:52:31;;;;;;;6.68;1.55;;;;;;;25.55;22.94;99299.88;4947391;28;20038;-82
2023/05/12 09:55:03;;;;;;;;;;;;;;;25.45;23.17;99302.91;4948142;28;20100;-79
2023/05/12 09:57:28;;;;;;;4.70;1.92;;;;;;;25.31;23.46;99301.22;4963879;28;19995;-82
2023/05/12 09:59:54;;;;;;;3.47;1.10;;;;;;;25.11;24.04;99307.25;4947137;28;20092;-79
2023/05/12 10:02:19;;;;;;;2.03;1.20;;;;;;;25.03;24.03;99305.59;4963529;28;20462;-78
2023/05/12 10:04:49;;;;;;;4.35;1.33;;;;;;;24.76;24.51;99314.44;4963400;28;20100;-79
2023/05/12 10:07:16;;;;;;;6.63;1.40;;;;;;;24.64;24.42;99306.16;4979988;28;20121;-78
2023/05/12 10:09:41;;;;;;;5.05;1.80;;;;;;;24.52;24.89;99319.16;4947226;28;20046;-80
2023/05/12 10:12:07;;;;;;;4.75;1.30;;;;;;;24.23;25.00;99309.47;4947960;28;20117;-79
2023/05/12 10:14:34;;;;;;;3.70;1.30;;;;;;;24.20;25.27;99308.03;4963197;28;20034;-78
2023/05/12 10:17:00;;;;;;;10.70;1.80;;;;;;;24.36;25.20;99309.59;4947053;28;20050;-79
2023/05/12 10:19:25;;;;;;;5.38;1.40;;;;;;;24.59;24.72;99297.88;4978785;28;20421;-79
2023/05/12 10:21:51;;;;;;;4.18;1.60;;;;;;;24.69;24.60;99299.19;4962822;28;20505;-78
2023/05/12 10:24:17;;;;;;;5.20;1.40;;;;;;;24.69;24.61;99293.88;4963049;28;20452;-78
2023/05/12 10:26:43;;;;;;;6.07;1.80;;;;;;;24.59;24.64;99296.06;4946458;28;20077;-78
2023/05/12 10:29:09;;;;;;;14.30;1.73;;;;;;;24.56;24.50;99286.59;4962449;28;20038;-79
2023/05/12 10:31:35;;;;;;;5.18;1.40;;;;;;;24.62;24.59;99294.84;4946145;28;20489;-80
2023/05/12 10:34:01;;;;;;;9.70;1.75;;;;;;;24.55;24.73;99292.09;4961900;28;20061;-78
2023/05/12 10:36:27;;;;;;;7.95;1.60;;;;;;;24.43;24.32;99293.63;4962234;28;20470;-79
2023/05/12 10:38:53;;;;;;;4.07;1.40;;;;;;;24.27;24.54;99287.56;4962335;28;20133;-78
2023/05/12 10:41:32;;;;;;;5.90;1.70;;;;;;;23.97;24.57;99297.53;4962332;28;20032;-79
2023/05/12 10:43:57;;;;;;;9.70;1.40;;;;;;;23.89;24.65;99287.00;4963109;28;20034;-79
2023/05/12 10:46:25;;;;;;;6.93;1.63;;;;;;;23.80;24.85;99284.44;4962289;28;20419;-78
2023/05/12 10:49:02;;;;;;;;;;;;;;;23.74;24.84;99284.38;4962897;28;20181;-79
2023/05/12 10:51:29;;;;;;;11.57;1.73;;;;;;;23.77;24.38;99278.69;4978256;28;20466;-79
2023/05/12 10:53:57;;;;;;;2.97;1.17;;;;;;;23.78;24.74;99273.16;4962467;28;20042;-78
2023/05/12 10:56:29;;;;;;;4.60;1.45;;;;;;;23.81;24.57;99272.75;4978328;28;20117;-82
2023/05/12 10:59:16;;;;;;;7.50;1.65;;;;;;;23.96;24.43;99278.06;4963571;28;20041;-81
2023/05/12 11:01:54;;;;;;;8.88;1.35;;;;;;;23.98;24.23;99265.38;4978533;28;20050;-78
2023/05/12 11:04:21;;;;;;;5.05;1.63;;;;;;;23.98;24.23;99280.53;4978468;28;20460;-79
2023/05/12 11:06:57;;;;;;;9.02;1.40;;;;;;;23.82;24.46;99269.09;4946693;28;20034;-78
2023/05/12 11:09:23;;;;;;;8.07;1.42;;;;;;;23.87;24.27;99273.88;4963076;28;20568;-78
2023/05/12 11:11:49;;;;;;;9.10;1.45;;;;;;;23.81;24.31;99279.94;4961750;28;20081;-79
2023/05/12 11:14:14;;;;;;;5.93;1.27;;;;;;;23.56;24.64;99272.31;4977137;28;20071;-79
2023/05/12 11:16:43;;;;;;;3.75;1.50;;;;;;;23.34;24.87;99258.13;4961578;28;20193;-85
2023/05/12 11:19:09;;;;;;;5.40;1.30;;;;;;;23.32;25.12;99272.63;4945535;28;20039;-78
2023/05/12 11:21:34;;;;;;;8.07;1.30;;;;;;;23.22;25.43;99260.44;4945458;28;20125;-78
2023/05/12 11:24:00;;;;;;;5.35;1.50;;;;;;;23.23;25.31;99272.75;4944789;28;20058;-79
2023/05/12 11:26:27;;;;;;;8.90;1.50;;;;;;;23.06;25.21;99261.44;4961493;28;20033;-77
2023/05/12 11:28:53;;;;;;;5.03;1.23;;;;;;;23.21;25.19;99261.44;4962265;28;20469;-78
2023/05/12 11:31:19;;;;;;;5.45;1.40;;;;;;;23.05;25.42;99250.97;4961766;28;20035;-77